sensor_id;sensor_type;location;lat;lon;timestamp;temperature;humidity
55785;DHT22;41709;52.536;5.688;2024-03-06T00:01:34;8.30;93.20
55785;DHT22;41709;52.536;5.688;2024-03-06T00:03:59;8.20;93.20
55785;DHT22;41709;52.536;5.688;2024-03-06T00:06:25;8.20;93.20
55785;DHT22;41709;52.536;5.688;2024-03-06T00:08:51;8.20;93.20
55785;DHT22;41709;52.536;5.688;2024-03-06T00:11:16;8.20;93.30
55785;DHT22;41709;52.536;5.688;2024-03-06T00:13:42;8.20;93.30
55785;DHT22;41709;52.536;5.688;2024-03-06T00:16:08;8.20;93.30
55785;DHT22;41709;52.536;5.688;2024-03-06T00:18:34;8.20;93.40
55785;DHT22;41709;52.536;5.688;2024-03-06T00:21:00;8.20;93.40
55785;DHT22;41709;52.536;5.688;2024-03-06T00:23:25;8.20;93.40
55785;DHT22;41709;52.536;5.688;2024-03-06T00:25:51;8.20;93.40
55785;DHT22;41709;52.536;5.688;2024-03-06T00:28:17;8.20;93.40
55785;DHT22;41709;52.536;5.688;2024-03-06T00:30:43;8.20;93.40
55785;DHT22;41709;52.536;5.688;2024-03-06T00:33:09;8.20;93.40
55785;DHT22;41709;52.536;5.688;2024-03-06T00:35:35;8.20;93.40
55785;DHT22;41709;52.536;5.688;2024-03-06T00:38:00;8.20;93.40
55785;DHT22;41709;52.536;5.688;2024-03-06T00:40:28;8.20;93.50
55785;DHT22;41709;52.536;5.688;2024-03-06T00:42:56;8.20;93.50
55785;DHT22;41709;52.536;5.688;2024-03-06T00:45:22;8.20;93.50
55785;DHT22;41709;52.536;5.688;2024-03-06T00:47:48;8.20;93.50
55785;DHT22;41709;52.536;5.688;2024-03-06T00:50:13;8.20;93.50
55785;DHT22;41709;52.536;5.688;2024-03-06T00:52:40;8.20;93.60
55785;DHT22;41709;52.536;5.688;2024-03-06T00:55:05;8.10;93.50
55785;DHT22;41709;52.536;5.688;2024-03-06T00:57:31;8.20;93.60
55785;DHT22;41709;52.536;5.688;2024-03-06T00:59:57;8.20;93.60
55785;DHT22;41709;52.536;5.688;2024-03-06T01:02:22;8.20;93.60
55785;DHT22;41709;52.536;5.688;2024-03-06T01:04:48;8.10;93.50
55785;DHT22;41709;52.536;5.688;2024-03-06T01:07:13;8.10;93.60
55785;DHT22;41709;52.536;5.688;2024-03-06T01:09:39;8.10;93.60
55785;DHT22;41709;52.536;5.688;2024-03-06T01:12:04;8.10;93.70
55785;DHT22;41709;52.536;5.688;2024-03-06T01:14:31;8.00;93.70
55785;DHT22;41709;52.536;5.688;2024-03-06T01:16:56;8.00;93.80
55785;DHT22;41709;52.536;5.688;2024-03-06T01:19:23;8.00;93.90
55785;DHT22;41709;52.536;5.688;2024-03-06T01:21:49;8.00;93.90
55785;DHT22;41709;52.536;5.688;2024-03-06T01:24:14;8.00;93.90
55785;DHT22;41709;52.536;5.688;2024-03-06T01:26:40;8.00;93.90
55785;DHT22;41709;52.536;5.688;2024-03-06T01:29:06;8.00;93.90
55785;DHT22;41709;52.536;5.688;2024-03-06T01:31:31;8.00;94.00
55785;DHT22;41709;52.536;5.688;2024-03-06T01:33:57;7.90;93.90
55785;DHT22;41709;52.536;5.688;2024-03-06T01:36:23;7.90;94.00
55785;DHT22;41709;52.536;5.688;2024-03-06T01:38:48;7.90;94.00
55785;DHT22;41709;52.536;5.688;2024-03-06T01:41:14;7.90;94.00
55785;DHT22;41709;52.536;5.688;2024-03-06T01:43:40;7.90;94.00
55785;DHT22;41709;52.536;5.688;2024-03-06T01:46:06;7.90;94.00
55785;DHT22;41709;52.536;5.688;2024-03-06T01:48:33;7.90;94.00
55785;DHT22;41709;52.536;5.688;2024-03-06T01:51:01;8.00;94.00
55785;DHT22;41709;52.536;5.688;2024-03-06T01:53:29;7.90;94.00
55785;DHT22;41709;52.536;5.688;2024-03-06T01:55:56;7.90;94.00
55785;DHT22;41709;52.536;5.688;2024-03-06T01:58:23;7.90;94.00
55785;DHT22;41709;52.536;5.688;2024-03-06T02:00:50;8.00;94.00
55785;DHT22;41709;52.536;5.688;2024-03-06T02:03:16;8.00;94.00
55785;DHT22;41709;52.536;5.688;2024-03-06T02:05:42;8.00;94.00
55785;DHT22;41709;52.536;5.688;2024-03-06T02:08:08;8.00;94.00
55785;DHT22;41709;52.536;5.688;2024-03-06T02:10:34;8.10;94.00
55785;DHT22;41709;52.536;5.688;2024-03-06T02:13:00;8.10;94.00
55785;DHT22;41709;52.536;5.688;2024-03-06T02:15:26;8.10;93.90
55785;DHT22;41709;52.536;5.688;2024-03-06T02:17:52;8.10;93.90
55785;DHT22;41709;52.536;5.688;2024-03-06T02:20:25;8.10;94.20
55785;DHT22;41709;52.536;5.688;2024-03-06T02:22:50;8.20;93.80
55785;DHT22;41709;52.536;5.688;2024-03-06T02:25:16;8.20;93.80
55785;DHT22;41709;52.536;5.688;2024-03-06T02:27:43;8.30;93.80
55785;DHT22;41709;52.536;5.688;2024-03-06T02:30:10;8.20;93.80
55785;DHT22;41709;52.536;5.688;2024-03-06T02:32:36;8.30;93.80
55785;DHT22;41709;52.536;5.688;2024-03-06T02:35:02;8.30;93.80
55785;DHT22;41709;52.536;5.688;2024-03-06T02:37:28;8.30;93.70
55785;DHT22;41709;52.536;5.688;2024-03-06T02:39:54;8.30;93.70
55785;DHT22;41709;52.536;5.688;2024-03-06T02:42:19;8.30;93.70
55785;DHT22;41709;52.536;5.688;2024-03-06T02:44:45;8.40;93.70
55785;DHT22;41709;52.536;5.688;2024-03-06T02:47:11;8.40;93.60
55785;DHT22;41709;52.536;5.688;2024-03-06T02:49:36;8.40;93.60
55785;DHT22;41709;52.536;5.688;2024-03-06T02:52:02;8.40;93.50
55785;DHT22;41709;52.536;5.688;2024-03-06T02:54:28;8.40;93.50
55785;DHT22;41709;52.536;5.688;2024-03-06T02:56:53;8.40;93.50
55785;DHT22;41709;52.536;5.688;2024-03-06T02:59:19;8.40;93.80
55785;DHT22;41709;52.536;5.688;2024-03-06T03:01:45;8.50;93.50
55785;DHT22;41709;52.536;5.688;2024-03-06T03:04:10;8.50;93.40
55785;DHT22;41709;52.536;5.688;2024-03-06T03:06:36;8.50;93.40
55785;DHT22;41709;52.536;5.688;2024-03-06T03:09:02;8.50;93.40
55785;DHT22;41709;52.536;5.688;2024-03-06T03:11:29;8.50;93.40
55785;DHT22;41709;52.536;5.688;2024-03-06T03:13:55;8.50;93.40
55785;DHT22;41709;52.536;5.688;2024-03-06T03:16:20;8.50;93.40
55785;DHT22;41709;52.536;5.688;2024-03-06T03:18:46;8.50;93.30
55785;DHT22;41709;52.536;5.688;2024-03-06T03:21:13;8.50;93.30
55785;DHT22;41709;52.536;5.688;2024-03-06T03:23:39;8.50;93.30
55785;DHT22;41709;52.536;5.688;2024-03-06T03:26:08;8.50;93.30
55785;DHT22;41709;52.536;5.688;2024-03-06T03:28:38;8.60;93.30
55785;DHT22;41709;52.536;5.688;2024-03-06T03:31:05;8.60;93.30
55785;DHT22;41709;52.536;5.688;2024-03-06T03:33:31;8.60;93.30
55785;DHT22;41709;52.536;5.688;2024-03-06T03:35:56;8.60;93.30
55785;DHT22;41709;52.536;5.688;2024-03-06T03:38:22;8.60;93.30
55785;DHT22;41709;52.536;5.688;2024-03-06T03:40:47;8.60;93.30
55785;DHT22;41709;52.536;5.688;2024-03-06T03:43:13;8.60;93.30
55785;DHT22;41709;52.536;5.688;2024-03-06T03:45:38;8.60;93.20
55785;DHT22;41709;52.536;5.688;2024-03-06T03:48:05;8.60;93.20
55785;DHT22;41709;52.536;5.688;2024-03-06T03:50:31;8.60;93.20
55785;DHT22;41709;52.536;5.688;2024-03-06T03:52:57;8.60;93.20
55785;DHT22;41709;52.536;5.688;2024-03-06T03:55:26;8.60;93.20
55785;DHT22;41709;52.536;5.688;2024-03-06T03:57:52;8.60;93.20
55785;DHT22;41709;52.536;5.688;2024-03-06T04:00:18;8.70;93.20
55785;DHT22;41709;52.536;5.688;2024-03-06T04:02:44;8.60;93.20
55785;DHT22;41709;52.536;5.688;2024-03-06T04:05:10;8.60;93.20
55785;DHT22;41709;52.536;5.688;2024-03-06T04:07:36;8.60;93.20
55785;DHT22;41709;52.536;5.688;2024-03-06T04:10:03;8.70;93.20
55785;DHT22;41709;52.536;5.688;2024-03-06T04:12:29;8.60;93.10
55785;DHT22;41709;52.536;5.688;2024-03-06T04:14:54;8.70;93.10
55785;DHT22;41709;52.536;5.688;2024-03-06T04:17:20;8.60;93.00
55785;DHT22;41709;52.536;5.688;2024-03-06T04:19:45;8.70;93.00
55785;DHT22;41709;52.536;5.688;2024-03-06T04:22:13;8.60;93.00
55785;DHT22;41709;52.536;5.688;2024-03-06T04:24:41;8.60;93.00
55785;DHT22;41709;52.536;5.688;2024-03-06T04:27:07;8.60;92.90
55785;DHT22;41709;52.536;5.688;2024-03-06T04:29:33;8.60;93.00
55785;DHT22;41709;52.536;5.688;2024-03-06T04:31:59;8.60;93.00
55785;DHT22;41709;52.536;5.688;2024-03-06T04:34:24;8.60;93.00
55785;DHT22;41709;52.536;5.688;2024-03-06T04:36:50;8.60;92.90
55785;DHT22;41709;52.536;5.688;2024-03-06T04:39:15;8.60;93.00
55785;DHT22;41709;52.536;5.688;2024-03-06T04:41:41;8.60;93.30
55785;DHT22;41709;52.536;5.688;2024-03-06T04:44:06;8.50;93.00
55785;DHT22;41709;52.536;5.688;2024-03-06T04:46:32;8.50;93.00
55785;DHT22;41709;52.536;5.688;2024-03-06T04:48:57;8.40;93.00
55785;DHT22;41709;52.536;5.688;2024-03-06T04:51:23;8.40;93.00
55785;DHT22;41709;52.536;5.688;2024-03-06T04:53:49;8.40;93.00
55785;DHT22;41709;52.536;5.688;2024-03-06T04:56:15;8.40;93.00
55785;DHT22;41709;52.536;5.688;2024-03-06T04:58:44;8.40;93.10
55785;DHT22;41709;52.536;5.688;2024-03-06T05:01:11;8.40;93.10
55785;DHT22;41709;52.536;5.688;2024-03-06T05:03:36;8.30;93.10
55785;DHT22;41709;52.536;5.688;2024-03-06T05:06:04;8.30;93.10
55785;DHT22;41709;52.536;5.688;2024-03-06T05:08:30;8.30;93.10
55785;DHT22;41709;52.536;5.688;2024-03-06T05:10:56;8.30;93.50
55785;DHT22;41709;52.536;5.688;2024-03-06T05:13:22;8.30;93.20
55785;DHT22;41709;52.536;5.688;2024-03-06T05:15:48;8.30;93.30
55785;DHT22;41709;52.536;5.688;2024-03-06T05:18:13;8.30;93.30
55785;DHT22;41709;52.536;5.688;2024-03-06T05:20:39;8.20;93.20
55785;DHT22;41709;52.536;5.688;2024-03-06T05:23:04;8.20;93.20
55785;DHT22;41709;52.536;5.688;2024-03-06T05:25:30;8.20;93.20
55785;DHT22;41709;52.536;5.688;2024-03-06T05:27:56;8.20;93.10
55785;DHT22;41709;52.536;5.688;2024-03-06T05:30:21;8.20;93.10
55785;DHT22;41709;52.536;5.688;2024-03-06T05:32:47;8.20;93.10
55785;DHT22;41709;52.536;5.688;2024-03-06T05:35:12;8.10;93.10
55785;DHT22;41709;52.536;5.688;2024-03-06T05:37:38;8.10;93.10
55785;DHT22;41709;52.536;5.688;2024-03-06T05:40:04;8.20;93.10
55785;DHT22;41709;52.536;5.688;2024-03-06T05:42:30;8.10;93.10
55785;DHT22;41709;52.536;5.688;2024-03-06T05:44:59;8.10;93.10
55785;DHT22;41709;52.536;5.688;2024-03-06T05:47:32;8.00;93.00
55785;DHT22;41709;52.536;5.688;2024-03-06T05:49:59;8.00;93.00
55785;DHT22;41709;52.536;5.688;2024-03-06T05:52:24;8.00;93.10
55785;DHT22;41709;52.536;5.688;2024-03-06T05:54:50;7.90;93.00
55785;DHT22;41709;52.536;5.688;2024-03-06T05:57:16;8.00;93.10
55785;DHT22;41709;52.536;5.688;2024-03-06T05:59:42;7.90;93.10
55785;DHT22;41709;52.536;5.688;2024-03-06T06:02:07;7.90;93.10
55785;DHT22;41709;52.536;5.688;2024-03-06T06:04:33;7.90;93.20
55785;DHT22;41709;52.536;5.688;2024-03-06T06:06:59;7.90;93.20
55785;DHT22;41709;52.536;5.688;2024-03-06T06:09:24;7.90;93.20
55785;DHT22;41709;52.536;5.688;2024-03-06T06:11:50;7.80;93.20
55785;DHT22;41709;52.536;5.688;2024-03-06T06:14:16;7.80;93.10
55785;DHT22;41709;52.536;5.688;2024-03-06T06:16:42;7.80;93.10
55785;DHT22;41709;52.536;5.688;2024-03-06T06:19:08;7.80;93.20
55785;DHT22;41709;52.536;5.688;2024-03-06T06:21:33;7.80;93.20
55785;DHT22;41709;52.536;5.688;2024-03-06T06:24:01;7.70;93.30
55785;DHT22;41709;52.536;5.688;2024-03-06T06:26:27;7.70;93.30
55785;DHT22;41709;52.536;5.688;2024-03-06T06:28:53;7.70;93.40
55785;DHT22;41709;52.536;5.688;2024-03-06T06:31:18;7.70;93.40
55785;DHT22;41709;52.536;5.688;2024-03-06T06:33:44;7.60;93.40
55785;DHT22;41709;52.536;5.688;2024-03-06T06:36:11;7.60;93.50
55785;DHT22;41709;52.536;5.688;2024-03-06T06:38:36;7.60;93.50
55785;DHT22;41709;52.536;5.688;2024-03-06T06:41:02;7.60;93.50
55785;DHT22;41709;52.536;5.688;2024-03-06T06:43:28;7.50;93.50
55785;DHT22;41709;52.536;5.688;2024-03-06T06:45:53;7.50;93.60
55785;DHT22;41709;52.536;5.688;2024-03-06T06:48:19;7.50;93.70
55785;DHT22;41709;52.536;5.688;2024-03-06T06:50:44;7.40;93.70
55785;DHT22;41709;52.536;5.688;2024-03-06T06:53:13;7.40;93.80
55785;DHT22;41709;52.536;5.688;2024-03-06T06:55:39;7.40;93.80
55785;DHT22;41709;52.536;5.688;2024-03-06T06:58:04;7.40;93.90
55785;DHT22;41709;52.536;5.688;2024-03-06T07:00:30;7.40;94.00
55785;DHT22;41709;52.536;5.688;2024-03-06T07:02:56;7.40;94.00
55785;DHT22;41709;52.536;5.688;2024-03-06T07:05:24;7.40;94.10
55785;DHT22;41709;52.536;5.688;2024-03-06T07:07:49;7.40;94.10
55785;DHT22;41709;52.536;5.688;2024-03-06T07:10:15;7.40;94.00
55785;DHT22;41709;52.536;5.688;2024-03-06T07:12:41;7.40;94.00
55785;DHT22;41709;52.536;5.688;2024-03-06T07:15:06;7.40;94.00
55785;DHT22;41709;52.536;5.688;2024-03-06T07:17:32;7.50;94.00
55785;DHT22;41709;52.536;5.688;2024-03-06T07:19:58;7.50;94.00
55785;DHT22;41709;52.536;5.688;2024-03-06T07:22:24;7.50;93.90
55785;DHT22;41709;52.536;5.688;2024-03-06T07:24:49;7.60;93.90
55785;DHT22;41709;52.536;5.688;2024-03-06T07:27:15;7.60;93.90
55785;DHT22;41709;52.536;5.688;2024-03-06T07:29:41;7.60;93.90
55785;DHT22;41709;52.536;5.688;2024-03-06T07:32:06;7.60;93.90
55785;DHT22;41709;52.536;5.688;2024-03-06T07:34:32;7.70;93.90
55785;DHT22;41709;52.536;5.688;2024-03-06T07:36:58;7.70;93.90
55785;DHT22;41709;52.536;5.688;2024-03-06T07:39:25;7.70;93.80
55785;DHT22;41709;52.536;5.688;2024-03-06T07:41:50;7.80;93.80
55785;DHT22;41709;52.536;5.688;2024-03-06T07:44:16;7.80;93.80
55785;DHT22;41709;52.536;5.688;2024-03-06T07:46:42;7.80;93.90
55785;DHT22;41709;52.536;5.688;2024-03-06T07:49:07;7.80;93.90
55785;DHT22;41709;52.536;5.688;2024-03-06T07:51:33;7.90;93.90
55785;DHT22;41709;52.536;5.688;2024-03-06T07:53:59;7.90;93.90
55785;DHT22;41709;52.536;5.688;2024-03-06T07:56:26;7.90;93.80
55785;DHT22;41709;52.536;5.688;2024-03-06T07:58:52;8.00;93.70
55785;DHT22;41709;52.536;5.688;2024-03-06T08:01:19;8.00;93.70
55785;DHT22;41709;52.536;5.688;2024-03-06T08:03:44;8.00;93.60
55785;DHT22;41709;52.536;5.688;2024-03-06T08:06:10;8.10;93.50
55785;DHT22;41709;52.536;5.688;2024-03-06T08:08:37;8.10;93.40
55785;DHT22;41709;52.536;5.688;2024-03-06T08:11:05;8.10;93.50
55785;DHT22;41709;52.536;5.688;2024-03-06T08:13:31;8.10;93.50
55785;DHT22;41709;52.536;5.688;2024-03-06T08:15:57;8.20;93.40
55785;DHT22;41709;52.536;5.688;2024-03-06T08:18:22;8.20;93.20
55785;DHT22;41709;52.536;5.688;2024-03-06T08:20:48;8.20;93.10
55785;DHT22;41709;52.536;5.688;2024-03-06T08:23:14;8.20;93.10
55785;DHT22;41709;52.536;5.688;2024-03-06T08:25:39;8.30;93.00
55785;DHT22;41709;52.536;5.688;2024-03-06T08:28:05;8.30;93.00
55785;DHT22;41709;52.536;5.688;2024-03-06T08:30:31;8.30;92.90
55785;DHT22;41709;52.536;5.688;2024-03-06T08:32:57;8.30;92.90
55785;DHT22;41709;52.536;5.688;2024-03-06T08:35:23;8.40;92.90
55785;DHT22;41709;52.536;5.688;2024-03-06T08:37:50;8.40;92.90
55785;DHT22;41709;52.536;5.688;2024-03-06T08:40:16;8.40;92.70
55785;DHT22;41709;52.536;5.688;2024-03-06T08:42:52;8.50;92.60
55785;DHT22;41709;52.536;5.688;2024-03-06T08:45:17;8.50;92.60
55785;DHT22;41709;52.536;5.688;2024-03-06T08:47:44;8.50;92.70
55785;DHT22;41709;52.536;5.688;2024-03-06T08:50:11;8.50;92.70
55785;DHT22;41709;52.536;5.688;2024-03-06T08:52:37;8.60;92.60
55785;DHT22;41709;52.536;5.688;2024-03-06T08:55:03;8.70;92.50
55785;DHT22;41709;52.536;5.688;2024-03-06T08:57:35;8.60;92.40
55785;DHT22;41709;52.536;5.688;2024-03-06T09:00:02;8.70;92.60
55785;DHT22;41709;52.536;5.688;2024-03-06T09:02:27;8.70;92.30
55785;DHT22;41709;52.536;5.688;2024-03-06T09:04:53;8.70;92.10
55785;DHT22;41709;52.536;5.688;2024-03-06T09:07:19;8.70;92.00
55785;DHT22;41709;52.536;5.688;2024-03-06T09:09:45;8.60;92.00
55785;DHT22;41709;52.536;5.688;2024-03-06T09:12:11;8.60;92.00
55785;DHT22;41709;52.536;5.688;2024-03-06T09:14:38;8.60;92.00
55785;DHT22;41709;52.536;5.688;2024-03-06T09:17:04;8.60;92.20
55785;DHT22;41709;52.536;5.688;2024-03-06T09:19:30;8.50;92.30
55785;DHT22;41709;52.536;5.688;2024-03-06T09:21:56;8.60;92.30
55785;DHT22;41709;52.536;5.688;2024-03-06T09:24:23;8.60;92.20
55785;DHT22;41709;52.536;5.688;2024-03-06T09:26:49;8.60;92.20
55785;DHT22;41709;52.536;5.688;2024-03-06T09:29:15;8.70;92.30
55785;DHT22;41709;52.536;5.688;2024-03-06T09:31:42;8.70;92.30
55785;DHT22;41709;52.536;5.688;2024-03-06T09:34:07;8.70;92.30
55785;DHT22;41709;52.536;5.688;2024-03-06T09:36:35;8.60;92.40
55785;DHT22;41709;52.536;5.688;2024-03-06T09:39:01;8.70;92.40
55785;DHT22;41709;52.536;5.688;2024-03-06T09:41:30;8.60;92.40
55785;DHT22;41709;52.536;5.688;2024-03-06T09:43:55;8.60;92.70
55785;DHT22;41709;52.536;5.688;2024-03-06T09:46:21;8.60;92.40
55785;DHT22;41709;52.536;5.688;2024-03-06T09:48:47;8.60;92.40
55785;DHT22;41709;52.536;5.688;2024-03-06T09:51:14;8.70;92.30
55785;DHT22;41709;52.536;5.688;2024-03-06T09:53:41;8.70;92.40
55785;DHT22;41709;52.536;5.688;2024-03-06T09:56:08;8.70;92.30
55785;DHT22;41709;52.536;5.688;2024-03-06T09:58:35;8.80;92.10
55785;DHT22;41709;52.536;5.688;2024-03-06T10:01:01;8.80;92.00
55785;DHT22;41709;52.536;5.688;2024-03-06T10:03:32;8.80;92.00
55785;DHT22;41709;52.536;5.688;2024-03-06T10:05:58;8.80;92.10
55785;DHT22;41709;52.536;5.688;2024-03-06T10:08:24;8.80;92.20
55785;DHT22;41709;52.536;5.688;2024-03-06T10:10:52;8.90;92.40
55785;DHT22;41709;52.536;5.688;2024-03-06T10:13:18;9.00;92.30
55785;DHT22;41709;52.536;5.688;2024-03-06T10:16:01;9.00;92.20
55785;DHT22;41709;52.536;5.688;2024-03-06T10:18:28;9.00;92.30
55785;DHT22;41709;52.536;5.688;2024-03-06T10:20:55;9.10;92.30
55785;DHT22;41709;52.536;5.688;2024-03-06T10:23:21;9.10;92.10
55785;DHT22;41709;52.536;5.688;2024-03-06T10:25:48;9.20;92.00
55785;DHT22;41709;52.536;5.688;2024-03-06T10:28:21;9.20;92.00
55785;DHT22;41709;52.536;5.688;2024-03-06T10:30:50;9.30;92.10
55785;DHT22;41709;52.536;5.688;2024-03-06T10:33:18;9.40;92.10
55785;DHT22;41709;52.536;5.688;2024-03-06T10:35:47;9.40;92.00
55785;DHT22;41709;52.536;5.688;2024-03-06T10:38:20;9.50;91.90
55785;DHT22;41709;52.536;5.688;2024-03-06T10:40:45;9.60;91.70
55785;DHT22;41709;52.536;5.688;2024-03-06T10:43:12;9.60;91.60
55785;DHT22;41709;52.536;5.688;2024-03-06T10:45:48;9.70;91.50
55785;DHT22;41709;52.536;5.688;2024-03-06T10:48:16;9.70;91.40
55785;DHT22;41709;52.536;5.688;2024-03-06T10:50:42;9.80;91.40
55785;DHT22;41709;52.536;5.688;2024-03-06T10:53:10;9.80;91.40
55785;DHT22;41709;52.536;5.688;2024-03-06T10:55:36;9.90;91.40
55785;DHT22;41709;52.536;5.688;2024-03-06T10:58:06;9.90;91.50
55785;DHT22;41709;52.536;5.688;2024-03-06T11:00:48;10.00;91.50
55785;DHT22;41709;52.536;5.688;2024-03-06T11:03:15;10.00;91.30
55785;DHT22;41709;52.536;5.688;2024-03-06T11:05:42;10.10;91.30
55785;DHT22;41709;52.536;5.688;2024-03-06T11:08:12;10.10;91.00
55785;DHT22;41709;52.536;5.688;2024-03-06T11:10:40;10.10;90.90
55785;DHT22;41709;52.536;5.688;2024-03-06T11:15:46;10.20;90.60
55785;DHT22;41709;52.536;5.688;2024-03-06T11:23:34;10.30;90.60
55785;DHT22;41709;52.536;5.688;2024-03-06T11:28:29;10.40;90.40
55785;DHT22;41709;52.536;5.688;2024-03-06T11:33:45;10.40;90.00
55785;DHT22;41709;52.536;5.688;2024-03-06T11:36:25;10.40;90.00
55785;DHT22;41709;52.536;5.688;2024-03-06T11:39:02;10.40;90.40
55785;DHT22;41709;52.536;5.688;2024-03-06T11:41:30;10.40;90.00
55785;DHT22;41709;52.536;5.688;2024-03-06T11:43:59;10.40;89.20
55785;DHT22;41709;52.536;5.688;2024-03-06T11:46:44;10.50;89.60
55785;DHT22;41709;52.536;5.688;2024-03-06T11:49:20;10.50;89.80
55785;DHT22;41709;52.536;5.688;2024-03-06T11:51:47;10.50;89.50
55785;DHT22;41709;52.536;5.688;2024-03-06T11:54:14;10.50;89.10
55785;DHT22;41709;52.536;5.688;2024-03-06T11:56:40;10.50;89.10
55785;DHT22;41709;52.536;5.688;2024-03-06T11:59:06;10.60;89.20
55785;DHT22;41709;52.536;5.688;2024-03-06T12:01:33;10.60;89.80
55785;DHT22;41709;52.536;5.688;2024-03-06T12:04:00;10.60;89.60
55785;DHT22;41709;52.536;5.688;2024-03-06T12:06:27;10.70;89.10
55785;DHT22;41709;52.536;5.688;2024-03-06T12:08:53;10.80;89.00
55785;DHT22;41709;52.536;5.688;2024-03-06T12:11:19;10.80;89.50
55785;DHT22;41709;52.536;5.688;2024-03-06T12:13:48;10.90;89.50
55785;DHT22;41709;52.536;5.688;2024-03-06T12:16:14;11.00;88.80
55785;DHT22;41709;52.536;5.688;2024-03-06T12:18:40;11.10;88.50
55785;DHT22;41709;52.536;5.688;2024-03-06T12:21:05;11.20;88.50
55785;DHT22;41709;52.536;5.688;2024-03-06T12:23:31;11.30;86.80
55785;DHT22;41709;52.536;5.688;2024-03-06T12:26:04;11.30;86.20
55785;DHT22;41709;52.536;5.688;2024-03-06T12:28:30;11.40;85.50
55785;DHT22;41709;52.536;5.688;2024-03-06T12:30:55;11.30;84.80
55785;DHT22;41709;52.536;5.688;2024-03-06T12:33:21;11.30;85.00
55785;DHT22;41709;52.536;5.688;2024-03-06T12:35:47;11.20;84.90
55785;DHT22;41709;52.536;5.688;2024-03-06T12:38:16;11.20;85.50
55785;DHT22;41709;52.536;5.688;2024-03-06T12:40:42;11.00;85.50
55785;DHT22;41709;52.536;5.688;2024-03-06T12:43:08;11.00;86.00
55785;DHT22;41709;52.536;5.688;2024-03-06T12:45:34;11.00;86.60
55785;DHT22;41709;52.536;5.688;2024-03-06T12:48:00;10.90;86.30
55785;DHT22;41709;52.536;5.688;2024-03-06T12:50:26;10.90;86.40
55785;DHT22;41709;52.536;5.688;2024-03-06T12:52:51;10.80;87.00
55785;DHT22;41709;52.536;5.688;2024-03-06T12:55:18;10.90;87.30
55785;DHT22;41709;52.536;5.688;2024-03-06T12:57:45;10.80;86.80
55785;DHT22;41709;52.536;5.688;2024-03-06T13:00:12;10.90;86.90
55785;DHT22;41709;52.536;5.688;2024-03-06T13:02:45;10.80;86.20
55785;DHT22;41709;52.536;5.688;2024-03-06T13:05:11;10.80;86.20
55785;DHT22;41709;52.536;5.688;2024-03-06T13:07:36;10.90;86.70
55785;DHT22;41709;52.536;5.688;2024-03-06T13:10:03;10.90;86.20
55785;DHT22;41709;52.536;5.688;2024-03-06T13:12:28;11.00;86.00
55785;DHT22;41709;52.536;5.688;2024-03-06T13:14:54;10.90;86.10
55785;DHT22;41709;52.536;5.688;2024-03-06T13:17:20;11.00;86.70
55785;DHT22;41709;52.536;5.688;2024-03-06T13:19:45;11.10;85.90
55785;DHT22;41709;52.536;5.688;2024-03-06T13:22:11;11.10;84.90
55785;DHT22;41709;52.536;5.688;2024-03-06T13:24:36;11.10;84.70
55785;DHT22;41709;52.536;5.688;2024-03-06T13:27:03;11.20;84.30
55785;DHT22;41709;52.536;5.688;2024-03-06T13:29:29;11.30;83.60
55785;DHT22;41709;52.536;5.688;2024-03-06T13:31:55;11.40;83.70
55785;DHT22;41709;52.536;5.688;2024-03-06T13:34:20;11.40;82.10
55785;DHT22;41709;52.536;5.688;2024-03-06T13:36:46;11.40;82.00
55785;DHT22;41709;52.536;5.688;2024-03-06T13:39:12;11.40;81.80
55785;DHT22;41709;52.536;5.688;2024-03-06T13:41:37;11.40;81.80
55785;DHT22;41709;52.536;5.688;2024-03-06T13:44:03;11.40;81.30
55785;DHT22;41709;52.536;5.688;2024-03-06T13:46:29;11.40;80.80
55785;DHT22;41709;52.536;5.688;2024-03-06T13:48:55;11.40;80.70
55785;DHT22;41709;52.536;5.688;2024-03-06T13:51:20;11.40;80.90
55785;DHT22;41709;52.536;5.688;2024-03-06T13:53:46;11.50;81.30
55785;DHT22;41709;52.536;5.688;2024-03-06T13:56:11;11.60;82.30
55785;DHT22;41709;52.536;5.688;2024-03-06T13:58:37;11.80;82.70
55785;DHT22;41709;52.536;5.688;2024-03-06T14:01:04;11.90;81.90
55785;DHT22;41709;52.536;5.688;2024-03-06T14:03:30;12.00;81.20
55785;DHT22;41709;52.536;5.688;2024-03-06T14:05:59;12.00;81.20
55785;DHT22;41709;52.536;5.688;2024-03-06T14:08:24;12.00;81.10
55785;DHT22;41709;52.536;5.688;2024-03-06T14:10:50;11.90;80.90
55785;DHT22;41709;52.536;5.688;2024-03-06T14:13:16;11.80;80.90
55785;DHT22;41709;52.536;5.688;2024-03-06T14:15:42;11.60;80.70
55785;DHT22;41709;52.536;5.688;2024-03-06T14:18:08;11.60;81.10
55785;DHT22;41709;52.536;5.688;2024-03-06T14:20:33;11.70;80.60
55785;DHT22;41709;52.536;5.688;2024-03-06T14:22:59;11.70;80.20
55785;DHT22;41709;52.536;5.688;2024-03-06T14:25:24;11.70;80.30
55785;DHT22;41709;52.536;5.688;2024-03-06T14:27:50;11.80;79.70
55785;DHT22;41709;52.536;5.688;2024-03-06T14:30:16;11.80;79.50
55785;DHT22;41709;52.536;5.688;2024-03-06T14:32:43;11.80;79.30
55785;DHT22;41709;52.536;5.688;2024-03-06T14:35:10;11.70;79.10
55785;DHT22;41709;52.536;5.688;2024-03-06T14:37:35;11.70;79.70
55785;DHT22;41709;52.536;5.688;2024-03-06T14:40:03;11.70;79.50
55785;DHT22;41709;52.536;5.688;2024-03-06T14:42:34;11.60;79.80
55785;DHT22;41709;52.536;5.688;2024-03-06T14:44:59;11.60;80.40
55785;DHT22;41709;52.536;5.688;2024-03-06T14:47:25;11.50;81.50
55785;DHT22;41709;52.536;5.688;2024-03-06T14:49:51;11.50;80.80
55785;DHT22;41709;52.536;5.688;2024-03-06T14:52:17;11.40;80.50
55785;DHT22;41709;52.536;5.688;2024-03-06T14:54:42;11.20;81.20
55785;DHT22;41709;52.536;5.688;2024-03-06T14:57:08;11.20;81.30
55785;DHT22;41709;52.536;5.688;2024-03-06T14:59:34;11.20;81.30
55785;DHT22;41709;52.536;5.688;2024-03-06T15:02:00;11.10;81.00
55785;DHT22;41709;52.536;5.688;2024-03-06T15:04:26;11.10;81.40
55785;DHT22;41709;52.536;5.688;2024-03-06T15:06:52;11.20;81.30
55785;DHT22;41709;52.536;5.688;2024-03-06T15:09:18;11.20;81.10
55785;DHT22;41709;52.536;5.688;2024-03-06T15:11:47;11.40;80.80
55785;DHT22;41709;52.536;5.688;2024-03-06T15:14:13;11.50;81.80
55785;DHT22;41709;52.536;5.688;2024-03-06T15:16:39;11.70;80.70
55785;DHT22;41709;52.536;5.688;2024-03-06T15:19:05;11.90;80.10
55785;DHT22;41709;52.536;5.688;2024-03-06T15:21:31;12.10;78.50
55785;DHT22;41709;52.536;5.688;2024-03-06T15:23:57;12.20;76.70
55785;DHT22;41709;52.536;5.688;2024-03-06T15:26:23;12.30;76.70
55785;DHT22;41709;52.536;5.688;2024-03-06T15:28:48;12.40;75.80
55785;DHT22;41709;52.536;5.688;2024-03-06T15:31:14;12.50;75.70
55785;DHT22;41709;52.536;5.688;2024-03-06T15:33:40;12.50;75.90
55785;DHT22;41709;52.536;5.688;2024-03-06T15:36:05;12.50;76.70
55785;DHT22;41709;52.536;5.688;2024-03-06T15:38:31;12.50;77.30
55785;DHT22;41709;52.536;5.688;2024-03-06T15:40:57;12.50;76.90
55785;DHT22;41709;52.536;5.688;2024-03-06T15:43:23;12.40;76.70
55785;DHT22;41709;52.536;5.688;2024-03-06T15:45:49;12.40;77.10
55785;DHT22;41709;52.536;5.688;2024-03-06T15:48:14;12.50;76.90
55785;DHT22;41709;52.536;5.688;2024-03-06T15:50:43;12.50;76.80